sensor_id;sensor_type;location;lat;lon;timestamp;P1;durP1;ratioP1;P2;durP2;ratioP2
29902;SDS011;30288;50.514;9.678;2022-07-03T00:14:20;8.10;;;3.97;;
29902;SDS011;30288;50.514;9.678;2022-07-03T00:16:38;6.47;;;4.05;;
29902;SDS011;30288;50.514;9.678;2022-07-03T00:18:50;7.13;;;3.53;;
29902;SDS011;30288;50.514;9.678;2022-07-03T00:21:02;8.65;;;4.20;;
29902;SDS011;30288;50.514;9.678;2022-07-03T00:23:22;6.45;;;3.88;;
29902;SDS011;30288;50.514;9.678;2022-07-03T00:25:34;5.65;;;3.65;;
29902;SDS011;30288;50.514;9.678;2022-07-03T00:27:47;7.13;;;3.95;;
29902;SDS011;30288;50.514;9.678;2022-07-03T00:30:04;8.63;;;4.00;;
29902;SDS011;30288;50.514;9.678;2022-07-03T00:32:18;9.85;;;3.97;;
29902;SDS011;30288;50.514;9.678;2022-07-03T00:34:39;10.40;;;4.57;;
29902;SDS011;30288;50.514;9.678;2022-07-03T00:36:53;6.90;;;4.20;;
29902;SDS011;30288;50.514;9.678;2022-07-03T00:39:16;5.95;;;3.83;;
29902;SDS011;30288;50.514;9.678;2022-07-03T00:41:29;8.75;;;4.68;;
29902;SDS011;30288;50.514;9.678;2022-07-03T00:43:42;9.73;;;4.50;;
29902;SDS011;30288;50.514;9.678;2022-07-03T00:45:55;8.27;;;4.20;;
29902;SDS011;30288;50.514;9.678;2022-07-03T00:54:54;16.10;;;5.28;;
29902;SDS011;30288;50.514;9.678;2022-07-03T00:57:11;12.13;;;4.63;;
29902;SDS011;30288;50.514;9.678;2022-07-03T00:59:19;7.63;;;4.63;;
29902;SDS011;30288;50.514;9.678;2022-07-03T01:01:34;7.95;;;4.38;;
29902;SDS011;30288;50.514;9.678;2022-07-03T01:03:56;8.88;;;4.25;;
29902;SDS011;30288;50.514;9.678;2022-07-03T01:06:22;10.32;;;4.30;;
29902;SDS011;30288;50.514;9.678;2022-07-03T01:08:42;7.38;;;4.35;;
29902;SDS011;30288;50.514;9.678;2022-07-03T01:11:00;8.52;;;4.70;;
29902;SDS011;30288;50.514;9.678;2022-07-03T01:13:25;9.68;;;4.93;;
29902;SDS011;30288;50.514;9.678;2022-07-03T01:15:59;9.80;;;4.50;;
29902;SDS011;30288;50.514;9.678;2022-07-03T01:18:24;10.70;;;4.95;;
29902;SDS011;30288;50.514;9.678;2022-07-03T01:20:47;9.45;;;3.97;;
29902;SDS011;30288;50.514;9.678;2022-07-03T01:23:17;8.07;;;4.32;;
29902;SDS011;30288;50.514;9.678;2022-07-03T01:25:42;8.88;;;5.10;;
29902;SDS011;30288;50.514;9.678;2022-07-03T01:27:57;11.00;;;4.50;;
29902;SDS011;30288;50.514;9.678;2022-07-03T01:30:17;8.55;;;4.80;;
29902;SDS011;30288;50.514;9.678;2022-07-03T01:32:38;8.30;;;4.50;;
29902;SDS011;30288;50.514;9.678;2022-07-03T01:34:53;11.57;;;5.00;;
29902;SDS011;30288;50.514;9.678;2022-07-03T01:37:07;9.07;;;4.45;;
29902;SDS011;30288;50.514;9.678;2022-07-03T01:39:30;8.65;;;5.43;;
29902;SDS011;30288;50.514;9.678;2022-07-03T01:41:59;8.88;;;4.72;;
29902;SDS011;30288;50.514;9.678;2022-07-03T01:44:11;8.50;;;5.15;;
29902;SDS011;30288;50.514;9.678;2022-07-03T01:46:31;10.38;;;5.60;;
29902;SDS011;30288;50.514;9.678;2022-07-03T01:55:05;8.38;;;4.93;;
29902;SDS011;30288;50.514;9.678;2022-07-03T01:57:26;9.20;;;5.28;;
29902;SDS011;30288;50.514;9.678;2022-07-03T01:59:48;7.03;;;4.72;;
29902;SDS011;30288;50.514;9.678;2022-07-03T02:02:00;9.98;;;5.15;;
29902;SDS011;30288;50.514;9.678;2022-07-03T02:04:53;9.10;;;5.40;;
29902;SDS011;30288;50.514;9.678;2022-07-03T02:07:11;12.20;;;5.93;;
29902;SDS011;30288;50.514;9.678;2022-07-03T02:09:34;8.18;;;5.43;;
29902;SDS011;30288;50.514;9.678;2022-07-03T02:11:54;6.25;;;4.20;;
29902;SDS011;30288;50.514;9.678;2022-07-03T02:14:16;8.40;;;6.00;;
29902;SDS011;30288;50.514;9.678;2022-07-03T02:16:29;10.35;;;5.97;;
29902;SDS011;30288;50.514;9.678;2022-07-03T02:18:58;7.60;;;5.38;;
29902;SDS011;30288;50.514;9.678;2022-07-03T02:21:15;11.23;;;5.10;;
29902;SDS011;30288;50.514;9.678;2022-07-03T02:23:30;8.40;;;5.38;;
29902;SDS011;30288;50.514;9.678;2022-07-03T02:25:52;4.78;;;3.55;;
29902;SDS011;30288;50.514;9.678;2022-07-03T02:28:17;10.98;;;5.28;;
29902;SDS011;30288;50.514;9.678;2022-07-03T02:30:42;10.48;;;5.63;;
29902;SDS011;30288;50.514;9.678;2022-07-03T02:32:59;12.50;;;6.32;;
29902;SDS011;30288;50.514;9.678;2022-07-03T02:35:21;10.25;;;6.22;;
29902;SDS011;30288;50.514;9.678;2022-07-03T02:37:38;8.70;;;5.88;;
29902;SDS011;30288;50.514;9.678;2022-07-03T02:39:57;7.95;;;5.25;;
29902;SDS011;30288;50.514;9.678;2022-07-03T02:42:19;10.52;;;5.95;;
29902;SDS011;30288;50.514;9.678;2022-07-03T02:44:42;7.85;;;5.10;;
29902;SDS011;30288;50.514;9.678;2022-07-03T02:47:06;7.18;;;3.95;;
29902;SDS011;30288;50.514;9.678;2022-07-03T02:52:17;7.32;;;5.13;;
29902;SDS011;30288;50.514;9.678;2022-07-03T02:54:38;7.65;;;5.18;;
29902;SDS011;30288;50.514;9.678;2022-07-03T02:56:57;9.75;;;5.68;;
29902;SDS011;30288;50.514;9.678;2022-07-03T02:59:28;8.45;;;5.60;;
29902;SDS011;30288;50.514;9.678;2022-07-03T03:01:57;8.70;;;4.95;;
29902;SDS011;30288;50.514;9.678;2022-07-03T03:04:22;8.27;;;5.75;;
29902;SDS011;30288;50.514;9.678;2022-07-03T03:06:47;9.38;;;5.55;;
29902;SDS011;30288;50.514;9.678;2022-07-03T03:09:04;8.82;;;5.13;;
29902;SDS011;30288;50.514;9.678;2022-07-03T03:11:21;7.40;;;5.18;;
29902;SDS011;30288;50.514;9.678;2022-07-03T03:13:44;11.57;;;5.35;;
29902;SDS011;30288;50.514;9.678;2022-07-03T03:16:02;10.25;;;5.55;;
29902;SDS011;30288;50.514;9.678;2022-07-03T03:18:23;6.82;;;5.03;;
29902;SDS011;30288;50.514;9.678;2022-07-03T03:20:41;8.15;;;5.43;;
29902;SDS011;30288;50.514;9.678;2022-07-03T03:23:02;8.75;;;5.28;;
29902;SDS011;30288;50.514;9.678;2022-07-03T03:25:30;7.07;;;5.00;;
29902;SDS011;30288;50.514;9.678;2022-07-03T03:27:48;10.60;;;5.30;;
29902;SDS011;30288;50.514;9.678;2022-07-03T03:30:00;9.45;;;5.10;;
29902;SDS011;30288;50.514;9.678;2022-07-03T03:32:14;9.38;;;5.40;;
29902;SDS011;30288;50.514;9.678;2022-07-03T03:34:33;9.35;;;5.65;;
29902;SDS011;30288;50.514;9.678;2022-07-03T03:36:49;7.07;;;5.13;;
29902;SDS011;30288;50.514;9.678;2022-07-03T03:39:07;9.48;;;5.10;;
29902;SDS011;30288;50.514;9.678;2022-07-03T03:41:19;8.43;;;5.45;;
29902;SDS011;30288;50.514;9.678;2022-07-03T03:43:36;8.15;;;5.95;;
29902;SDS011;30288;50.514;9.678;2022-07-03T03:45:48;9.75;;;6.03;;
29902;SDS011;30288;50.514;9.678;2022-07-03T03:48:00;7.75;;;5.78;;
29902;SDS011;30288;50.514;9.678;2022-07-03T03:50:17;8.48;;;6.10;;
29902;SDS011;30288;50.514;9.678;2022-07-03T03:52:31;9.25;;;6.20;;
29902;SDS011;30288;50.514;9.678;2022-07-03T03:54:49;11.63;;;6.47;;
29902;SDS011;30288;50.514;9.678;2022-07-03T03:57:14;9.38;;;6.40;;
29902;SDS011;30288;50.514;9.678;2022-07-03T03:59:36;9.40;;;6.65;;
29902;SDS011;30288;50.514;9.678;2022-07-03T04:01:48;9.45;;;5.80;;
29902;SDS011;30288;50.514;9.678;2022-07-03T04:04:05;9.85;;;6.15;;
29902;SDS011;30288;50.514;9.678;2022-07-03T04:06:18;9.23;;;6.78;;
29902;SDS011;30288;50.514;9.678;2022-07-03T04:08:32;9.10;;;6.13;;
29902;SDS011;30288;50.514;9.678;2022-07-03T04:10:50;9.27;;;6.28;;
29902;SDS011;30288;50.514;9.678;2022-07-03T04:13:02;10.05;;;5.82;;
29902;SDS011;30288;50.514;9.678;2022-07-03T04:15:13;8.43;;;5.55;;
29902;SDS011;30288;50.514;9.678;2022-07-03T04:17:25;8.32;;;5.95;;
29902;SDS011;30288;50.514;9.678;2022-07-03T04:19:37;10.70;;;5.70;;
29902;SDS011;30288;50.514;9.678;2022-07-03T04:21:50;8.57;;;5.55;;
29902;SDS011;30288;50.514;9.678;2022-07-03T04:24:05;8.57;;;5.88;;
29902;SDS011;30288;50.514;9.678;2022-07-03T04:26:17;10.05;;;5.85;;
29902;SDS011;30288;50.514;9.678;2022-07-03T04:28:28;9.80;;;6.07;;
29902;SDS011;30288;50.514;9.678;2022-07-03T04:30:45;7.68;;;5.57;;
29902;SDS011;30288;50.514;9.678;2022-07-03T04:32:57;9.98;;;6.13;;
29902;SDS011;30288;50.514;9.678;2022-07-03T04:35:14;8.63;;;5.60;;
29902;SDS011;30288;50.514;9.678;2022-07-03T04:37:26;9.25;;;6.10;;
29902;SDS011;30288;50.514;9.678;2022-07-03T04:39:39;10.38;;;6.32;;
29902;SDS011;30288;50.514;9.678;2022-07-03T04:41:57;10.75;;;6.88;;
29902;SDS011;30288;50.514;9.678;2022-07-03T04:44:08;9.88;;;6.15;;
29902;SDS011;30288;50.514;9.678;2022-07-03T04:46:26;9.93;;;6.53;;
29902;SDS011;30288;50.514;9.678;2022-07-03T04:48:38;12.40;;;6.93;;
29902;SDS011;30288;50.514;9.678;2022-07-03T04:50:55;13.73;;;6.82;;
29902;SDS011;30288;50.514;9.678;2022-07-03T04:53:07;15.13;;;6.95;;
29902;SDS011;30288;50.514;9.678;2022-07-03T04:55:20;9.20;;;6.00;;
29902;SDS011;30288;50.514;9.678;2022-07-03T04:57:38;11.48;;;6.47;;
29902;SDS011;30288;50.514;9.678;2022-07-03T04:59:50;11.27;;;6.45;;
29902;SDS011;30288;50.514;9.678;2022-07-03T05:02:07;8.93;;;5.95;;
29902;SDS011;30288;50.514;9.678;2022-07-03T05:04:19;9.05;;;5.50;;
29902;SDS011;30288;50.514;9.678;2022-07-03T05:06:31;9.35;;;5.30;;
29902;SDS011;30288;50.514;9.678;2022-07-03T05:08:43;9.98;;;6.40;;
29902;SDS011;30288;50.514;9.678;2022-07-03T05:10:57;13.65;;;5.97;;
29902;SDS011;30288;50.514;9.678;2022-07-03T05:13:08;10.70;;;6.22;;
29902;SDS011;30288;50.514;9.678;2022-07-03T05:15:26;12.38;;;6.72;;
29902;SDS011;30288;50.514;9.678;2022-07-03T05:17:37;11.75;;;6.10;;
29902;SDS011;30288;50.514;9.678;2022-07-03T05:19:54;13.40;;;6.22;;
29902;SDS011;30288;50.514;9.678;2022-07-03T05:22:18;12.30;;;6.28;;
29902;SDS011;30288;50.514;9.678;2022-07-03T05:24:29;14.18;;;6.15;;
29902;SDS011;30288;50.514;9.678;2022-07-03T05:26:49;17.23;;;7.78;;
29902;SDS011;30288;50.514;9.678;2022-07-03T05:29:01;13.80;;;6.90;;
29902;SDS011;30288;50.514;9.678;2022-07-03T05:31:19;14.48;;;6.75;;
29902;SDS011;30288;50.514;9.678;2022-07-03T05:33:31;19.70;;;7.20;;
29902;SDS011;30288;50.514;9.678;2022-07-03T05:35:43;11.45;;;6.47;;
29902;SDS011;30288;50.514;9.678;2022-07-03T05:38:02;20.80;;;6.93;;
29902;SDS011;30288;50.514;9.678;2022-07-03T05:40:14;14.20;;;6.38;;
29902;SDS011;30288;50.514;9.678;2022-07-03T05:42:32;18.23;;;6.55;;
29902;SDS011;30288;50.514;9.678;2022-07-03T05:44:45;18.02;;;6.55;;
29902;SDS011;30288;50.514;9.678;2022-07-03T05:47:03;14.13;;;6.40;;
29902;SDS011;30288;50.514;9.678;2022-07-03T05:49:16;16.40;;;6.00;;
29902;SDS011;30288;50.514;9.678;2022-07-03T05:51:34;18.33;;;5.88;;
29902;SDS011;30288;50.514;9.678;2022-07-03T05:53:46;21.42;;;5.65;;
29902;SDS011;30288;50.514;9.678;2022-07-03T05:55:58;11.07;;;5.13;;
29902;SDS011;30288;50.514;9.678;2022-07-03T05:58:19;13.27;;;4.72;;
29902;SDS011;30288;50.514;9.678;2022-07-03T06:00:30;10.10;;;4.15;;
29902;SDS011;30288;50.514;9.678;2022-07-03T06:02:47;8.68;;;3.88;;
29902;SDS011;30288;50.514;9.678;2022-07-03T06:04:58;10.82;;;3.92;;
29902;SDS011;30288;50.514;9.678;2022-07-03T06:07:09;9.05;;;3.55;;
29902;SDS011;30288;50.514;9.678;2022-07-03T06:09:26;8.73;;;3.03;;
29902;SDS011;30288;50.514;9.678;2022-07-03T06:11:37;13.55;;;3.63;;
29902;SDS011;30288;50.514;9.678;2022-07-03T06:13:58;6.25;;;2.90;;
29902;SDS011;30288;50.514;9.678;2022-07-03T06:16:09;8.93;;;3.58;;
29902;SDS011;30288;50.514;9.678;2022-07-03T06:18:26;6.53;;;3.10;;
29902;SDS011;30288;50.514;9.678;2022-07-03T06:20:37;5.95;;;2.40;;
29902;SDS011;30288;50.514;9.678;2022-07-03T06:22:49;6.00;;;2.67;;
29902;SDS011;30288;50.514;9.678;2022-07-03T06:25:06;7.70;;;2.65;;
29902;SDS011;30288;50.514;9.678;2022-07-03T06:27:19;8.05;;;2.40;;
29902;SDS011;30288;50.514;9.678;2022-07-03T06:29:39;6.22;;;2.72;;
29902;SDS011;30288;50.514;9.678;2022-07-03T06:31:51;7.25;;;2.20;;
29902;SDS011;30288;50.514;9.678;2022-07-03T06:34:08;8.40;;;2.50;;
29902;SDS011;30288;50.514;9.678;2022-07-03T06:36:19;6.13;;;2.40;;
29902;SDS011;30288;50.514;9.678;2022-07-03T06:38:36;5.80;;;2.25;;
29902;SDS011;30288;50.514;9.678;2022-07-03T06:40:48;5.25;;;2.40;;
29902;SDS011;30288;50.514;9.678;2022-07-03T06:43:05;8.77;;;2.45;;
29902;SDS011;30288;50.514;9.678;2022-07-03T06:45:19;10.27;;;2.60;;
29902;SDS011;30288;50.514;9.678;2022-07-03T06:47:36;5.60;;;1.98;;
29902;SDS011;30288;50.514;9.678;2022-07-03T06:49:49;6.70;;;2.17;;
29902;SDS011;30288;50.514;9.678;2022-07-03T06:52:00;8.80;;;2.63;;
29902;SDS011;30288;50.514;9.678;2022-07-03T06:54:18;4.32;;;1.85;;
29902;SDS011;30288;50.514;9.678;2022-07-03T06:56:29;5.85;;;1.90;;
29902;SDS011;30288;50.514;9.678;2022-07-03T06:58:46;7.68;;;2.17;;
29902;SDS011;30288;50.514;9.678;2022-07-03T07:01:01;5.55;;;1.40;;
29902;SDS011;30288;50.514;9.678;2022-07-03T07:03:18;3.13;;;1.73;;
29902;SDS011;30288;50.514;9.678;2022-07-03T07:05:30;4.32;;;1.63;;
29902;SDS011;30288;50.514;9.678;2022-07-03T07:07:42;5.40;;;1.58;;
29902;SDS011;30288;50.514;9.678;2022-07-03T07:09:59;5.63;;;1.63;;
29902;SDS011;30288;50.514;9.678;2022-07-03T07:12:11;4.63;;;1.55;;
29902;SDS011;30288;50.514;9.678;2022-07-03T07:14:22;6.63;;;1.55;;
29902;SDS011;30288;50.514;9.678;2022-07-03T07:16:42;5.20;;;1.20;;
29902;SDS011;30288;50.514;9.678;2022-07-03T07:18:53;2.20;;;1.00;;
29902;SDS011;30288;50.514;9.678;2022-07-03T07:21:04;3.78;;;1.40;;
29902;SDS011;30288;50.514;9.678;2022-07-03T07:23:21;3.88;;;1.23;;
29902;SDS011;30288;50.514;9.678;2022-07-03T07:25:32;3.20;;;1.20;;
29902;SDS011;30288;50.514;9.678;2022-07-03T07:27:49;4.93;;;1.63;;
29902;SDS011;30288;50.514;9.678;2022-07-03T07:30:01;3.17;;;1.40;;
29902;SDS011;30288;50.514;9.678;2022-07-03T07:32:22;3.33;;;1.27;;
29902;SDS011;30288;50.514;9.678;2022-07-03T07:34:33;7.28;;;1.30;;
29902;SDS011;30288;50.514;9.678;2022-07-03T07:36:50;3.47;;;1.50;;
29902;SDS011;30288;50.514;9.678;2022-07-03T07:39:01;5.43;;;1.27;;
29902;SDS011;30288;50.514;9.678;2022-07-03T07:41:13;4.65;;;1.58;;
29902;SDS011;30288;50.514;9.678;2022-07-03T07:43:30;4.03;;;1.40;;
29902;SDS011;30288;50.514;9.678;2022-07-03T07:45:42;3.42;;;1.48;;
29902;SDS011;30288;50.514;9.678;2022-07-03T07:47:57;3.55;;;1.67;;
29902;SDS011;30288;50.514;9.678;2022-07-03T07:50:14;4.35;;;1.30;;
29902;SDS011;30288;50.514;9.678;2022-07-03T07:52:26;3.83;;;1.30;;
29902;SDS011;30288;50.514;9.678;2022-07-03T07:54:38;5.93;;;1.40;;
29902;SDS011;30288;50.514;9.678;2022-07-03T07:56:55;3.00;;;1.10;;
29902;SDS011;30288;50.514;9.678;2022-07-03T07:59:06;2.78;;;1.38;;
29902;SDS011;30288;50.514;9.678;2022-07-03T08:01:23;2.28;;;1.30;;
29902;SDS011;30288;50.514;9.678;2022-07-03T08:03:50;3.70;;;1.33;;
29902;SDS011;30288;50.514;9.678;2022-07-03T08:06:07;3.70;;;1.52;;
29902;SDS011;30288;50.514;9.678;2022-07-03T08:08:26;3.60;;;1.50;;
29902;SDS011;30288;50.514;9.678;2022-07-03T08:10:37;4.13;;;1.30;;
29902;SDS011;30288;50.514;9.678;2022-07-03T08:12:57;2.55;;;1.20;;
29902;SDS011;30288;50.514;9.678;2022-07-03T08:15:09;3.40;;;1.33;;
29902;SDS011;30288;50.514;9.678;2022-07-03T08:17:26;6.30;;;2.13;;
29902;SDS011;30288;50.514;9.678;2022-07-03T08:19:41;6.53;;;1.40;;
29902;SDS011;30288;50.514;9.678;2022-07-03T08:21:52;3.47;;;1.40;;
29902;SDS011;30288;50.514;9.678;2022-07-03T08:24:09;4.32;;;1.30;;
29902;SDS011;30288;50.514;9.678;2022-07-03T08:26:21;3.17;;;1.38;;
29902;SDS011;30288;50.514;9.678;2022-07-03T08:28:38;3.92;;;1.38;;
29902;SDS011;30288;50.514;9.678;2022-07-03T08:30:50;3.97;;;1.48;;
29902;SDS011;30288;50.514;9.678;2022-07-03T08:33:07;4.60;;;1.45;;
29902;SDS011;30288;50.514;9.678;2022-07-03T08:35:22;3.60;;;1.50;;
29902;SDS011;30288;50.514;9.678;2022-07-03T08:37:33;7.72;;;1.50;;
29902;SDS011;30288;50.514;9.678;2022-07-03T08:39:53;3.22;;;1.20;;
29902;SDS011;30288;50.514;9.678;2022-07-03T08:42:05;3.58;;;1.20;;
29902;SDS011;30288;50.514;9.678;2022-07-03T08:44:23;3.33;;;1.40;;
29902;SDS011;30288;50.514;9.678;2022-07-03T08:48:49;1.88;;;1.25;;
29902;SDS011;30288;50.514;9.678;2022-07-03T08:51:11;3.53;;;1.40;;
29902;SDS011;30288;50.514;9.678;2022-07-03T08:53:24;2.42;;;1.48;;
29902;SDS011;30288;50.514;9.678;2022-07-03T08:55:36;2.10;;;1.10;;
29902;SDS011;30288;50.514;9.678;2022-07-03T08:57:48;2.15;;;1.20;;
29902;SDS011;30288;50.514;9.678;2022-07-03T09:00:00;4.03;;;1.10;;
29902;SDS011;30288;50.514;9.678;2022-07-03T09:02:21;4.95;;;1.55;;
29902;SDS011;30288;50.514;9.678;2022-07-03T09:04:35;2.60;;;1.08;;
29902;SDS011;30288;50.514;9.678;2022-07-03T09:09:08;2.22;;;1.13;;
29902;SDS011;30288;50.514;9.678;2022-07-03T09:11:20;2.55;;;1.33;;
29902;SDS011;30288;50.514;9.678;2022-07-03T09:15:50;3.88;;;1.38;;
29902;SDS011;30288;50.514;9.678;2022-07-03T09:18:03;2.70;;;1.25;;
29902;SDS011;30288;50.514;9.678;2022-07-03T09:20:26;2.60;;;1.08;;
29902;SDS011;30288;50.514;9.678;2022-07-03T09:22:43;2.92;;;1.23;;
29902;SDS011;30288;50.514;9.678;2022-07-03T09:25:04;2.38;;;1.10;;
29902;SDS011;30288;50.514;9.678;2022-07-03T09:27:19;1.38;;;0.80;;
29902;SDS011;30288;50.514;9.678;2022-07-03T09:29:37;2.58;;;0.90;;
29902;SDS011;30288;50.514;9.678;2022-07-03T09:32:06;3.28;;;1.05;;
29902;SDS011;30288;50.514;9.678;2022-07-03T09:34:24;4.38;;;0.80;;
29902;SDS011;30288;50.514;9.678;2022-07-03T09:36:37;2.67;;;0.90;;
29902;SDS011;30288;50.514;9.678;2022-07-03T09:38:59;3.72;;;1.05;;
29902;SDS011;30288;50.514;9.678;2022-07-03T09:41:10;2.75;;;0.93;;
29902;SDS011;30288;50.514;9.678;2022-07-03T09:43:23;4.88;;;0.82;;
29902;SDS011;30288;50.514;9.678;2022-07-03T09:48:00;1.50;;;0.70;;
29902;SDS011;30288;50.514;9.678;2022-07-03T09:50:26;1.63;;;0.98;;
29902;SDS011;30288;50.514;9.678;2022-07-03T09:52:43;1.55;;;0.88;;
29902;SDS011;30288;50.514;9.678;2022-07-03T09:54:59;1.48;;;0.90;;
29902;SDS011;30288;50.514;9.678;2022-07-03T09:57:22;2.97;;;1.00;;
29902;SDS011;30288;50.514;9.678;2022-07-03T09:59:39;1.73;;;0.98;;
29902;SDS011;30288;50.514;9.678;2022-07-03T10:01:51;3.37;;;0.93;;
29902;SDS011;30288;50.514;9.678;2022-07-03T10:04:11;3.03;;;0.90;;
29902;SDS011;30288;50.514;9.678;2022-07-03T10:06:27;2.13;;;0.70;;
29902;SDS011;30288;50.514;9.678;2022-07-03T10:08:39;1.30;;;0.70;;
29902;SDS011;30288;50.514;9.678;2022-07-03T10:10:56;2.83;;;1.10;;
29902;SDS011;30288;50.514;9.678;2022-07-03T10:13:09;1.25;;;0.80;;
29902;SDS011;30288;50.514;9.678;2022-07-03T10:15:29;4.43;;;0.90;;
29902;SDS011;30288;50.514;9.678;2022-07-03T10:17:49;2.60;;;1.00;;
29902;SDS011;30288;50.514;9.678;2022-07-03T10:20:05;2.33;;;0.80;;
29902;SDS011;30288;50.514;9.678;2022-07-03T10:22:25;1.73;;;0.73;;
29902;SDS011;30288;50.514;9.678;2022-07-03T10:36:01;2.08;;;0.98;;
29902;SDS011;30288;50.514;9.678;2022-07-03T10:38:24;4.07;;;0.90;;
29902;SDS011;30288;50.514;9.678;2022-07-03T10:40:52;2.33;;;1.00;;
29902;SDS011;30288;50.514;9.678;2022-07-03T10:43:24;3.50;;;0.93;;
29902;SDS011;30288;50.514;9.678;2022-07-03T10:48:42;2.88;;;0.77;;
29902;SDS011;30288;50.514;9.678;2022-07-03T10:51:14;1.33;;;0.68;;
29902;SDS011;30288;50.514;9.678;2022-07-03T10:53:27;2.10;;;0.90;;
29902;SDS011;30288;50.514;9.678;2022-07-03T10:55:45;1.88;;;0.90;;
29902;SDS011;30288;50.514;9.678;2022-07-03T10:58:08;2.35;;;0.90;;
29902;SDS011;30288;50.514;9.678;2022-07-03T11:00:19;1.27;;;0.77;;
29902;SDS011;30288;50.514;9.678;2022-07-03T11:02:32;2.10;;;0.80;;
29902;SDS011;30288;50.514;9.678;2022-07-03T11:05:06;2.30;;;0.80;;
29902;SDS011;30288;50.514;9.678;2022-07-03T11:07:23;3.25;;;0.88;;
29902;SDS011;30288;50.514;9.678;2022-07-03T11:09:40;1.60;;;0.70;;
29902;SDS011;30288;50.514;9.678;2022-07-03T11:11:51;1.92;;;0.88;;
29902;SDS011;30288;50.514;9.678;2022-07-03T11:14:19;2.53;;;1.00;;
29902;SDS011;30288;50.514;9.678;2022-07-03T11:16:37;5.60;;;0.88;;
29902;SDS011;30288;50.514;9.678;2022-07-03T11:18:56;2.87;;;0.73;;
29902;SDS011;30288;50.514;9.678;2022-07-03T11:21:08;1.92;;;0.88;;
29902;SDS011;30288;50.514;9.678;2022-07-03T11:23:48;3.58;;;1.00;;
29902;SDS011;30288;50.514;9.678;2022-07-03T11:26:35;4.50;;;1.07;;
29902;SDS011;30288;50.514;9.678;2022-07-03T11:28:48;1.60;;;0.80;;
29902;SDS011;30288;50.514;9.678;2022-07-03T11:31:18;2.58;;;1.00;;
29902;SDS011;30288;50.514;9.678;2022-07-03T11:33:40;2.80;;;0.73;;
29902;SDS011;30288;50.514;9.678;2022-07-03T11:35:53;2.15;;;0.80;;
29902;SDS011;30288;50.514;9.678;2022-07-03T11:38:10;2.30;;;0.70;;
29902;SDS011;30288;50.514;9.678;2022-07-03T11:40:27;3.50;;;0.90;;
29902;SDS011;30288;50.514;9.678;2022-07-03T11:42:47;2.05;;;0.85;;
29902;SDS011;30288;50.514;9.678;2022-07-03T11:44:59;2.53;;;0.73;;
29902;SDS011;30288;50.514;9.678;2022-07-03T11:47:17;5.88;;;1.10;;
29902;SDS011;30288;50.514;9.678;2022-07-03T11:49:47;1.70;;;0.80;;
29902;SDS011;30288;50.514;9.678;2022-07-03T11:51:59;1.10;;;0.80;;
29902;SDS011;30288;50.514;9.678;2022-07-03T11:54:19;1.77;;;0.70;;
29902;SDS011;30288;50.514;9.678;2022-07-03T11:56:34;2.13;;;1.10;;
29902;SDS011;30288;50.514;9.678;2022-07-03T11:58:47;5.47;;;1.02;;
29902;SDS011;30288;50.514;9.678;2022-07-03T12:01:00;2.70;;;0.85;;
29902;SDS011;30288;50.514;9.678;2022-07-03T12:03:17;1.43;;;0.90;;
29902;SDS011;30288;50.514;9.678;2022-07-03T12:05:34;5.65;;;0.90;;
29902;SDS011;30288;50.514;9.678;2022-07-03T12:08:01;4.22;;;0.98;;
29902;SDS011;30288;50.514;9.678;2022-07-03T12:10:14;2.15;;;1.00;;
29902;SDS011;30288;50.514;9.678;2022-07-03T12:12:36;2.08;;;1.08;;
29902;SDS011;30288;50.514;9.678;2022-07-03T12:14:48;2.05;;;0.90;;
29902;SDS011;30288;50.514;9.678;2022-07-03T12:17:07;3.92;;;1.10;;
29902;SDS011;30288;50.514;9.678;2022-07-03T12:19:20;3.80;;;1.00;;
29902;SDS011;30288;50.514;9.678;2022-07-03T12:21:36;1.97;;;0.93;;
29902;SDS011;30288;50.514;9.678;2022-07-03T12:26:06;3.47;;;1.08;;
29902;SDS011;30288;50.514;9.678;2022-07-03T12:28:26;2.10;;;1.00;;
29902;SDS011;30288;50.514;9.678;2022-07-03T12:30:37;2.88;;;1.02;;
29902;SDS011;30288;50.514;9.678;2022-07-03T12:32:49;2.80;;;1.08;;
29902;SDS011;30288;50.514;9.678;2022-07-03T12:35:07;3.80;;;1.05;;
29902;SDS011;30288;50.514;9.678;2022-07-03T12:37:30;2.95;;;1.02;;
29902;SDS011;30288;50.514;9.678;2022-07-03T12:39:40;1.80;;;1.00;;
29902;SDS011;30288;50.514;9.678;2022-07-03T12:41:53;1.65;;;0.98;;
29902;SDS011;30288;50.514;9.678;2022-07-03T12:44:07;2.20;;;1.10;;
29902;SDS011;30288;50.514;9.678;2022-07-03T12:46:18;1.85;;;0.90;;
29902;SDS011;30288;50.514;9.678;2022-07-03T12:48:43;4.75;;;0.80;;
29902;SDS011;30288;50.514;9.678;2022-07-03T12:50:56;4.05;;;1.45;;
29902;SDS011;30288;50.514;9.678;2022-07-03T12:53:25;2.20;;;1.08;;
29902;SDS011;30288;50.514;9.678;2022-07-03T12:55:42;2.22;;;1.00;;
29902;SDS011;30288;50.514;9.678;2022-07-03T12:58:12;2.20;;;0.90;;
29902;SDS011;30288;50.514;9.678;2022-07-03T13:00:46;3.60;;;0.98;;
29902;SDS011;30288;50.514;9.678;2022-07-03T13:03:03;2.25;;;0.75;;
29902;SDS011;30288;50.514;9.678;2022-07-03T13:05:28;2.63;;;0.70;;
29902;SDS011;30288;50.514;9.678;2022-07-03T13:07:40;2.17;;;0.90;;
29902;SDS011;30288;50.514;9.678;2022-07-03T13:09:53;1.80;;;0.85;;
29902;SDS011;30288;50.514;9.678;2022-07-03T13:12:06;2.40;;;0.82;;
29902;SDS011;30288;50.514;9.678;2022-07-03T13:14:18;2.95;;;0.88;;
29902;SDS011;30288;50.514;9.678;2022-07-03T13:16:45;2.80;;;0.90;;
29902;SDS011;30288;50.514;9.678;2022-07-03T13:18:59;1.80;;;0.80;;
29902;SDS011;30288;50.514;9.678;2022-07-03T13:21:11;4.38;;;1.00;;
29902;SDS011;30288;50.514;9.678;2022-07-03T13:23:28;6.68;;;0.93;;
29902;SDS011;30288;50.514;9.678;2022-07-03T13:25:40;1.45;;;0.90;;
29902;SDS011;30288;50.514;9.678;2022-07-03T13:28:02;4.45;;;0.90;;
29902;SDS011;30288;50.514;9.678;2022-07-03T13:30:20;2.08;;;0.93;;
29902;SDS011;30288;50.514;9.678;2022-07-03T13:32:34;3.35;;;1.00;;
29902;SDS011;30288;50.514;9.678;2022-07-03T13:34:45;3.38;;;0.90;;
29902;SDS011;30288;50.514;9.678;2022-07-03T13:37:03;2.65;;;1.08;;
29902;SDS011;30288;50.514;9.678;2022-07-03T13:39:14;1.83;;;0.80;;
29902;SDS011;30288;50.514;9.678;2022-07-03T13:41:31;5.55;;;1.00;;
29902;SDS011;30288;50.514;9.678;2022-07-03T13:43:42;4.63;;;0.80;;
29902;SDS011;30288;50.514;9.678;2022-07-03T13:45:53;2.60;;;0.80;;
29902;SDS011;30288;50.514;9.678;2022-07-03T13:48:13;5.53;;;0.90;;
29902;SDS011;30288;50.514;9.678;2022-07-03T13:50:24;1.55;;;0.70;;
29902;SDS011;30288;50.514;9.678;2022-07-03T13:52:36;6.32;;;0.88;;
29902;SDS011;30288;50.514;9.678;2022-07-03T13:54:54;4.03;;;1.02;;
29902;SDS011;30288;50.514;9.678;2022-07-03T13:57:05;6.78;;;1.10;;
29902;SDS011;30288;50.514;9.678;2022-07-03T13:59:22;4.80;;;0.98;;
29902;SDS011;30288;50.514;9.678;2022-07-03T14:01:34;6.72;;;1.13;;
29902;SDS011;30288;50.514;9.678;2022-07-03T14:03:48;1.33;;;0.70;;
29902;SDS011;30288;50.514;9.678;2022-07-03T14:06:05;4.00;;;0.85;;
29902;SDS011;30288;50.514;9.678;2022-07-03T14:08:17;3.15;;;0.75;;
29902;SDS011;30288;50.514;9.678;2022-07-03T14:10:29;1.65;;;0.90;;
29902;SDS011;30288;50.514;9.678;2022-07-03T14:12:46;5.38;;;0.88;;
29902;SDS011;30288;50.514;9.678;2022-07-03T14:14:58;2.60;;;0.70;;
29902;SDS011;30288;50.514;9.678;2022-07-03T14:17:09;6.93;;;0.70;;
29902;SDS011;30288;50.514;9.678;2022-07-03T14:19:24;4.00;;;1.00;;
29902;SDS011;30288;50.514;9.678;2022-07-03T14:21:35;6.13;;;0.85;;
29902;SDS011;30288;50.514;9.678;2022-07-03T14:23:47;2.28;;;0.70;;
29902;SDS011;30288;50.514;9.678;2022-07-03T14:28:48;3.97;;;0.80;;
29902;SDS011;30288;50.514;9.678;2022-07-03T14:31:06;1.27;;;0.70;;
29902;SDS011;30288;50.514;9.678;2022-07-03T14:33:30;1.98;;;0.70;;
29902;SDS011;30288;50.514;9.678;2022-07-03T14:35:44;2.38;;;0.73;;
29902;SDS011;30288;50.514;9.678;2022-07-03T14:38:01;2.20;;;0.70;;
29902;SDS011;30288;50.514;9.678;2022-07-03T14:40:13;3.55;;;0.70;;